createdAt,value
2023-03-06T00:00:05.510Z,996.31
2023-03-06T00:00:34.396Z,996.14
2023-03-06T00:01:08.890Z,996.14
2023-03-06T00:01:34.395Z,996.04
2023-03-06T00:01:56.892Z,996.04
2023-03-06T00:02:29.563Z,996.04
2023-03-06T00:03:00.912Z,996.24
2023-03-06T00:03:34.515Z,996.24
2023-03-06T00:04:04.886Z,996.04
2023-03-06T00:04:35.139Z,996.04
2023-03-06T00:04:52.885Z,996.04
2023-03-06T00:05:25.098Z,996.04
2023-03-06T00:05:42.888Z,996.14
2023-03-06T00:06:12.932Z,996.14
2023-03-06T00:06:34.377Z,995.83
2023-03-06T00:07:00.910Z,995.83
2023-03-06T00:07:32.881Z,995.83
2023-03-06T00:08:05.616Z,996.14
2023-03-06T00:08:34.616Z,996.04
2023-03-06T00:08:52.865Z,996.04
2023-03-06T00:09:24.899Z,996.04
2023-03-06T00:09:42.021Z,996.04
2023-03-06T00:10:13.819Z,996.04
2023-03-06T00:10:34.381Z,996.04
2023-03-06T00:11:00.923Z,996.04
2023-03-06T00:11:32.909Z,996.04
2023-03-06T00:12:04.863Z,996.04
2023-03-06T00:12:34.451Z,995.94
2023-03-06T00:12:52.937Z,995.94
2023-03-06T00:13:25.624Z,995.94
2023-03-06T00:13:42.491Z,995.94
2023-03-06T00:14:29.720Z,995.94
2023-03-06T00:15:01.143Z,995.94
2023-03-06T00:15:33.675Z,995.94
2023-03-06T00:16:04.948Z,995.73
2023-03-06T00:16:35.239Z,995.94
2023-03-06T00:16:52.830Z,995.94
2023-03-06T00:17:34.410Z,995.94
2023-03-06T00:17:56.850Z,995.94
2023-03-06T00:18:28.858Z,995.94
2023-03-06T00:19:00.888Z,995.94
2023-03-06T00:19:32.854Z,995.94
2023-03-06T00:20:05.786Z,995.94
2023-03-06T00:20:34.427Z,996.04
2023-03-06T00:20:53.028Z,996.04
2023-03-06T00:21:24.865Z,996.04
2023-03-06T00:21:42.003Z,995.73
2023-03-06T00:22:13.616Z,995.73
2023-03-06T00:22:34.411Z,995.83
2023-03-06T00:23:01.011Z,995.83
2023-03-06T00:23:32.860Z,995.83
2023-03-06T00:24:04.893Z,995.73
2023-03-06T00:24:34.443Z,995.73
2023-03-06T00:24:52.832Z,995.73
2023-03-06T00:25:25.890Z,995.73
2023-03-06T00:25:57.886Z,995.94
2023-03-06T00:26:29.789Z,995.94
2023-03-06T00:27:00.965Z,995.63
2023-03-06T00:27:33.559Z,995.63
2023-03-06T00:28:04.885Z,995.83
2023-03-06T00:28:35.519Z,995.73
2023-03-06T00:28:52.844Z,995.73
2023-03-06T00:29:24.902Z,995.73
2023-03-06T00:29:42.846Z,995.73
2023-03-06T00:30:13.043Z,995.73
2023-03-06T00:30:34.408Z,995.73
2023-03-06T00:31:00.988Z,995.73
2023-03-06T00:31:32.950Z,995.73
2023-03-06T00:32:05.695Z,995.73
2023-03-06T00:32:34.457Z,995.63
2023-03-06T00:32:52.871Z,995.63
2023-03-06T00:33:24.902Z,995.63
2023-03-06T00:33:41.986Z,995.63
2023-03-06T00:34:13.680Z,995.63
2023-03-06T00:34:34.399Z,995.53
2023-03-06T00:35:01.007Z,995.53
2023-03-06T00:35:32.935Z,995.53
2023-03-06T00:36:04.892Z,995.83
2023-03-06T00:36:34.397Z,995.83
2023-03-06T00:36:52.883Z,995.83
2023-03-06T00:37:25.558Z,995.83
2023-03-06T00:37:42.511Z,995.83
2023-03-06T00:38:12.857Z,995.83
2023-03-06T00:38:34.605Z,995.73
2023-03-06T00:39:00.948Z,995.73
2023-03-06T00:39:33.568Z,995.73
2023-03-06T00:40:05.055Z,995.53
2023-03-06T00:40:35.285Z,995.73
2023-03-06T00:40:52.985Z,995.73
2023-03-06T00:41:24.972Z,995.73
2023-03-06T00:41:43.456Z,995.53
2023-03-06T00:42:12.884Z,995.53
2023-03-06T00:42:34.405Z,995.53
2023-03-06T00:43:00.900Z,995.53
2023-03-06T00:43:32.870Z,995.53
2023-03-06T00:44:05.843Z,995.43
2023-03-06T00:44:34.418Z,995.43
2023-03-06T00:44:52.869Z,995.43
2023-03-06T00:45:25.253Z,995.43
2023-03-06T00:45:42.091Z,995.53
2023-03-06T00:46:13.662Z,995.53
2023-03-06T00:46:34.414Z,995.53
2023-03-06T00:47:00.921Z,995.53
2023-03-06T00:47:32.884Z,995.53
2023-03-06T00:48:04.926Z,995.43
2023-03-06T00:48:34.439Z,995.33
2023-03-06T00:48:52.865Z,995.33
2023-03-06T00:49:25.708Z,995.33
2023-03-06T00:49:42.260Z,995.73
2023-03-06T00:50:13.034Z,995.73
2023-03-06T00:50:35.263Z,995.43
2023-03-06T00:51:00.922Z,995.43
2023-03-06T00:51:32.909Z,995.43
2023-03-06T00:52:04.892Z,995.33
2023-03-06T00:52:34.909Z,995.53
2023-03-06T00:52:53.708Z,995.53
2023-03-06T00:53:24.878Z,995.53
2023-03-06T00:53:42.039Z,995.63
2023-03-06T00:54:12.853Z,995.63
2023-03-06T00:54:34.400Z,995.43
2023-03-06T00:55:02.090Z,995.43
2023-03-06T00:55:32.903Z,995.43
2023-03-06T00:56:05.702Z,995.43
2023-03-06T00:56:35.026Z,995.33
2023-03-06T00:56:52.845Z,995.33
2023-03-06T00:57:24.927Z,995.33
2023-03-06T00:57:42.068Z,995.63
2023-03-06T00:58:13.746Z,995.63
2023-03-06T00:58:34.417Z,995.63
2023-03-06T00:59:00.884Z,995.63
2023-03-06T00:59:32.900Z,995.63
2023-03-06T01:00:05.261Z,995.43
2023-03-06T01:00:34.423Z,995.43
2023-03-06T01:00:53.558Z,995.43
2023-03-06T01:01:25.642Z,995.43
2023-03-06T01:01:57.848Z,995.53
2023-03-06T01:02:29.778Z,995.53
2023-03-06T01:03:00.890Z,995.33
2023-03-06T01:03:33.594Z,995.33
2023-03-06T01:04:04.878Z,995.43
2023-03-06T01:04:35.248Z,995.43
2023-03-06T01:04:52.821Z,995.43
2023-03-06T01:05:25.083Z,995.43
2023-03-06T01:05:42.807Z,995.43
2023-03-06T01:06:12.866Z,995.43
2023-03-06T01:06:34.946Z,995.33
2023-03-06T01:07:00.936Z,995.33
2023-03-06T01:07:33.389Z,995.33
2023-03-06T01:08:05.667Z,995.33
2023-03-06T01:08:34.381Z,995.33
2023-03-06T01:08:52.903Z,995.33
2023-03-06T01:09:24.898Z,995.33
2023-03-06T01:09:42.068Z,995.22
2023-03-06T01:10:13.875Z,995.22
2023-03-06T01:10:34.444Z,995.22
2023-03-06T01:11:00.948Z,995.22
2023-03-06T01:11:32.887Z,995.22
2023-03-06T01:12:04.905Z,995.22
2023-03-06T01:12:34.412Z,995.43
2023-03-06T01:12:52.905Z,995.43
2023-03-06T01:13:25.621Z,995.43
2023-03-06T01:13:42.482Z,995.43
2023-03-06T01:14:12.904Z,995.43
2023-03-06T01:14:34.386Z,995.22
2023-03-06T01:15:01.167Z,995.22
2023-03-06T01:15:33.575Z,995.22
2023-03-06T01:16:04.919Z,995.33
2023-03-06T01:16:35.665Z,995.33
2023-03-06T01:16:52.908Z,995.33
2023-03-06T01:17:24.937Z,995.33
2023-03-06T01:17:42.822Z,995.22
2023-03-06T01:18:12.889Z,995.22
2023-03-06T01:18:34.452Z,995.12
2023-03-06T01:19:00.883Z,995.12
2023-03-06T01:19:32.872Z,995.12
2023-03-06T01:20:05.937Z,995.12
2023-03-06T01:20:34.448Z,995.02
2023-03-06T01:20:53.093Z,995.02
2023-03-06T01:21:24.815Z,995.02
2023-03-06T01:21:42.091Z,995.22
2023-03-06T01:22:13.710Z,995.22
2023-03-06T01:22:34.424Z,995.33
2023-03-06T01:23:00.925Z,995.33
2023-03-06T01:23:32.930Z,995.33
2023-03-06T01:24:04.900Z,995.22
2023-03-06T01:24:34.417Z,995.22
2023-03-06T01:24:52.915Z,995.22
2023-03-06T01:25:25.849Z,995.22
2023-03-06T01:25:42.203Z,994.92
2023-03-06T01:26:12.981Z,994.92
2023-03-06T01:26:34.437Z,995.22
2023-03-06T01:27:00.970Z,995.22
2023-03-06T01:27:33.570Z,995.22
2023-03-06T01:28:04.933Z,995.43
2023-03-06T01:28:35.264Z,995.02
2023-03-06T01:28:52.895Z,995.02
2023-03-06T01:29:24.929Z,995.02
2023-03-06T01:29:57.679Z,995.12
2023-03-06T01:30:29.158Z,995.12
2023-03-06T01:31:01.711Z,995.22
2023-03-06T01:31:32.972Z,995.22
2023-03-06T01:32:05.971Z,995.12
2023-03-06T01:32:34.439Z,995.22
2023-03-06T01:32:52.877Z,995.22
2023-03-06T01:33:25.112Z,995.22
2023-03-06T01:33:42.153Z,995.22
2023-03-06T01:34:13.785Z,995.22
2023-03-06T01:34:34.556Z,994.92
2023-03-06T01:35:00.981Z,994.92
2023-03-06T01:35:33.357Z,994.92
2023-03-06T01:36:04.888Z,995.02
2023-03-06T01:36:34.418Z,994.92
2023-03-06T01:36:52.883Z,994.92
2023-03-06T01:37:25.753Z,994.92
2023-03-06T01:37:42.300Z,995.02
2023-03-06T01:38:12.851Z,995.02
2023-03-06T01:38:34.428Z,995.02
2023-03-06T01:39:00.904Z,995.02
2023-03-06T01:39:33.603Z,995.02
2023-03-06T01:40:05.030Z,994.92
2023-03-06T01:40:35.227Z,995.02
2023-03-06T01:40:53.007Z,995.02
2023-03-06T01:41:24.931Z,995.02
2023-03-06T01:41:42.783Z,994.82
2023-03-06T01:42:12.871Z,994.82
2023-03-06T01:42:35.043Z,995.22
2023-03-06T01:43:00.947Z,995.22
2023-03-06T01:43:33.284Z,995.22
2023-03-06T01:44:05.835Z,994.92
2023-03-06T01:44:34.409Z,995.12
2023-03-06T01:44:52.929Z,995.12
2023-03-06T01:45:25.085Z,995.12
2023-03-06T01:45:42.145Z,994.82
2023-03-06T01:46:13.824Z,994.82
2023-03-06T01:46:34.426Z,994.92
2023-03-06T01:47:00.895Z,994.92
2023-03-06T01:47:33.278Z,994.92
2023-03-06T01:48:05.655Z,995.22
2023-03-06T01:48:34.429Z,994.92
2023-03-06T01:48:52.899Z,994.92
2023-03-06T01:49:25.750Z,994.92
2023-03-06T01:49:42.250Z,994.82
2023-03-06T01:50:13.008Z,994.82
2023-03-06T01:50:34.418Z,994.82
2023-03-06T01:51:00.923Z,994.82
2023-03-06T01:51:33.708Z,994.82
2023-03-06T01:52:04.891Z,994.92
2023-03-06T01:52:35.251Z,994.82
2023-03-06T01:52:52.904Z,994.82
2023-03-06T01:53:24.934Z,994.82
2023-03-06T01:53:42.802Z,994.72
2023-03-06T01:54:12.930Z,994.72
2023-03-06T01:54:34.440Z,994.72
2023-03-06T01:55:01.072Z,994.72
2023-03-06T01:55:32.911Z,994.72
2023-03-06T01:56:05.568Z,994.72
2023-03-06T01:56:34.439Z,995.02
2023-03-06T01:56:52.905Z,995.02
2023-03-06T01:57:24.907Z,995.02
2023-03-06T01:57:42.031Z,995.02
2023-03-06T01:58:13.720Z,995.02
2023-03-06T01:58:35.098Z,994.82
2023-03-06T01:59:00.933Z,994.82
2023-03-06T01:59:34.323Z,994.82
2023-03-06T02:00:05.245Z,994.72
2023-03-06T02:00:35.446Z,994.72
2023-03-06T02:00:53.045Z,994.72
2023-03-06T02:01:25.017Z,994.72
2023-03-06T02:01:42.786Z,995.02
2023-03-06T02:02:12.942Z,995.02
2023-03-06T02:02:34.731Z,994.92
2023-03-06T02:03:00.935Z,994.92
2023-03-06T02:03:33.117Z,994.92
2023-03-06T02:04:21.719Z,994.82
2023-03-06T02:04:38.843Z,994.82
2023-03-06T02:05:09.103Z,994.82
2023-03-06T02:05:34.417Z,994.82
2023-03-06T02:05:57.107Z,994.82
2023-03-06T02:06:29.940Z,994.82
2023-03-06T02:07:00.945Z,994.72
2023-03-06T02:07:33.858Z,994.72
2023-03-06T02:08:05.032Z,994.72
2023-03-06T02:08:35.347Z,994.72
2023-03-06T02:08:52.871Z,994.72
2023-03-06T02:09:25.292Z,994.72
2023-03-06T02:09:43.113Z,994.82
2023-03-06T02:10:12.974Z,994.82
2023-03-06T02:10:34.430Z,994.61
2023-03-06T02:11:00.935Z,994.61
2023-03-06T02:11:33.026Z,994.61
2023-03-06T02:12:05.672Z,994.72
2023-03-06T02:12:34.914Z,994.72
2023-03-06T02:12:52.971Z,994.72
2023-03-06T02:13:24.905Z,994.72
2023-03-06T02:13:42.108Z,994.92
2023-03-06T02:14:13.718Z,994.92
2023-03-06T02:14:34.460Z,994.82
2023-03-06T02:15:01.174Z,994.82
2023-03-06T02:15:32.918Z,994.82
2023-03-06T02:16:04.957Z,994.72
2023-03-06T02:16:34.525Z,994.72
2023-03-06T02:16:53.023Z,994.72
2023-03-06T02:17:25.686Z,994.72
2023-03-06T02:17:42.203Z,994.72
2023-03-06T02:18:12.898Z,994.72
2023-03-06T02:18:34.430Z,994.61
2023-03-06T02:19:00.900Z,994.61
2023-03-06T02:19:33.642Z,994.61
2023-03-06T02:20:05.154Z,994.72
2023-03-06T02:20:35.352Z,994.51
2023-03-06T02:20:52.982Z,994.51
2023-03-06T02:21:24.982Z,994.51
2023-03-06T02:21:42.858Z,994.61
2023-03-06T02:22:12.910Z,994.61
2023-03-06T02:22:34.432Z,994.51
2023-03-06T02:23:00.904Z,994.51
2023-03-06T02:23:32.979Z,994.51
2023-03-06T02:24:05.604Z,994.41
2023-03-06T02:24:34.474Z,994.61
2023-03-06T02:24:52.887Z,994.61
2023-03-06T02:25:25.030Z,994.61
2023-03-06T02:25:42.083Z,994.61
2023-03-06T02:26:13.603Z,994.61
2023-03-06T02:26:34.428Z,994.61
2023-03-06T02:27:00.943Z,994.61
2023-03-06T02:27:32.945Z,994.61
2023-03-06T02:28:04.979Z,994.72
2023-03-06T02:28:35.262Z,994.31
2023-03-06T02:28:52.924Z,994.31
2023-03-06T02:29:24.947Z,994.31
2023-03-06T02:29:42.834Z,994.51
2023-03-06T02:30:13.158Z,994.51
2023-03-06T02:30:34.518Z,994.51
2023-03-06T02:31:01.029Z,994.51
2023-03-06T02:31:32.896Z,994.51
2023-03-06T02:32:05.707Z,994.61
2023-03-06T02:32:34.487Z,994.51
2023-03-06T02:32:52.930Z,994.51
2023-03-06T02:33:24.961Z,994.51
2023-03-06T02:33:42.109Z,994.61
2023-03-06T02:34:13.748Z,994.61
2023-03-06T02:34:34.421Z,994.72
2023-03-06T02:35:01.042Z,994.72
2023-03-06T02:35:32.993Z,994.72
2023-03-06T02:36:04.984Z,994.72
2023-03-06T02:36:34.817Z,994.72
2023-03-06T02:36:52.930Z,994.72
2023-03-06T02:37:25.661Z,994.72
2023-03-06T02:37:42.217Z,994.51
2023-03-06T02:38:12.915Z,994.51
2023-03-06T02:38:34.426Z,994.61
2023-03-06T02:39:00.982Z,994.61
2023-03-06T02:39:34.145Z,994.61
2023-03-06T02:40:05.052Z,994.51
2023-03-06T02:40:35.373Z,994.51
2023-03-06T02:40:53.112Z,994.51
2023-03-06T02:41:25.020Z,994.51
2023-03-06T02:41:42.822Z,994.51
2023-03-06T02:42:12.896Z,994.51
2023-03-06T02:42:34.490Z,994.41
2023-03-06T02:43:00.976Z,994.41
2023-03-06T02:43:32.922Z,994.41
2023-03-06T02:44:05.886Z,994.41
2023-03-06T02:44:34.425Z,994.61
2023-03-06T02:44:52.957Z,994.61
2023-03-06T02:45:25.144Z,994.61
2023-03-06T02:45:42.381Z,994.61
2023-03-06T02:46:13.862Z,994.61
2023-03-06T02:46:34.676Z,994.61
2023-03-06T02:47:00.995Z,994.61
2023-03-06T02:47:32.962Z,994.61
2023-03-06T02:48:04.977Z,994.61
2023-03-06T02:48:34.440Z,994.51
2023-03-06T02:48:52.948Z,994.51
2023-03-06T02:49:26.583Z,994.51
2023-03-06T02:49:42.247Z,994.41
2023-03-06T02:50:13.077Z,994.41
2023-03-06T02:50:34.945Z,994.51
2023-03-06T02:51:00.956Z,994.51
2023-03-06T02:51:33.705Z,994.51
2023-03-06T02:52:04.923Z,994.51
2023-03-06T02:52:35.241Z,994.41
2023-03-06T02:52:52.936Z,994.41
2023-03-06T02:53:24.992Z,994.41
2023-03-06T02:53:42.876Z,994.41
2023-03-06T02:54:12.941Z,994.41
2023-03-06T02:54:34.524Z,994.51
2023-03-06T02:55:01.106Z,994.51
2023-03-06T02:55:32.984Z,994.51
2023-03-06T02:56:05.824Z,994.51
2023-03-06T02:56:34.413Z,994.61
2023-03-06T02:56:52.963Z,994.61
2023-03-06T02:57:24.949Z,994.61
2023-03-06T02:57:42.102Z,994.41
2023-03-06T02:58:13.649Z,994.41
2023-03-06T02:58:34.387Z,994.41
2023-03-06T02:59:00.958Z,994.41
2023-03-06T02:59:32.888Z,994.41
2023-03-06T03:00:05.230Z,994.31
2023-03-06T03:00:34.442Z,994.31
2023-03-06T03:00:53.086Z,994.31
2023-03-06T03:01:25.806Z,994.31
2023-03-06T03:01:42.324Z,994.41
2023-03-06T03:02:12.942Z,994.41
2023-03-06T03:02:34.421Z,994.41
2023-03-06T03:03:00.963Z,994.41
2023-03-06T03:03:33.601Z,994.41
2023-03-06T03:04:05.001Z,994.51
2023-03-06T03:04:35.219Z,994.51
2023-03-06T03:04:53.061Z,994.51
2023-03-06T03:05:25.076Z,994.51
2023-03-06T03:05:42.841Z,994.41
2023-03-06T03:06:12.943Z,994.41
2023-03-06T03:06:34.418Z,994.41
2023-03-06T03:07:00.970Z,994.41
2023-03-06T03:07:32.934Z,994.41
2023-03-06T03:08:05.599Z,994.41
2023-03-06T03:08:34.451Z,994.41
2023-03-06T03:08:52.879Z,994.41
2023-03-06T03:09:24.968Z,994.41
2023-03-06T03:09:42.174Z,994.41
2023-03-06T03:10:13.857Z,994.41
2023-03-06T03:10:34.415Z,994.41
2023-03-06T03:11:00.966Z,994.41
2023-03-06T03:11:32.976Z,994.41
2023-03-06T03:12:04.928Z,994.21
2023-03-06T03:12:34.440Z,994.41
2023-03-06T03:12:52.969Z,994.41
2023-03-06T03:13:25.660Z,994.41
2023-03-06T03:13:42.289Z,994.41
2023-03-06T03:14:12.941Z,994.41
2023-03-06T03:14:34.488Z,994.41
2023-03-06T03:15:01.141Z,994.41
2023-03-06T03:15:33.800Z,994.41
2023-03-06T03:16:04.995Z,994.51
2023-03-06T03:16:36.649Z,994.21
2023-03-06T03:16:52.997Z,994.21
2023-03-06T03:17:24.955Z,994.21
2023-03-06T03:17:42.762Z,994.21
2023-03-06T03:18:12.947Z,994.21
2023-03-06T03:18:34.487Z,994.51
2023-03-06T03:19:01.038Z,994.51
2023-03-06T03:19:33.056Z,994.51
2023-03-06T03:20:05.880Z,994.41
2023-03-06T03:20:35.250Z,994.14
2023-03-06T03:20:53.065Z,994.14
2023-03-06T03:21:24.895Z,994.14
2023-03-06T03:21:42.088Z,994.21
2023-03-06T03:22:13.724Z,994.21
2023-03-06T03:22:34.418Z,994.21
2023-03-06T03:23:00.971Z,994.21
2023-03-06T03:23:32.978Z,994.21
2023-03-06T03:24:04.974Z,994.04
2023-03-06T03:24:34.438Z,994.31
2023-03-06T03:24:53.087Z,994.31
2023-03-06T03:25:25.935Z,994.31
2023-03-06T03:25:42.237Z,994.31
2023-03-06T03:26:12.910Z,994.31
2023-03-06T03:26:34.437Z,994.31
2023-03-06T03:27:00.926Z,994.31
2023-03-06T03:27:34.371Z,994.31
2023-03-06T03:28:04.946Z,994.31
2023-03-06T03:28:35.305Z,994.21
2023-03-06T03:28:53.006Z,994.21
2023-03-06T03:29:24.964Z,994.21
2023-03-06T03:29:42.787Z,994.21
2023-03-06T03:30:13.209Z,994.21
2023-03-06T03:30:34.443Z,994.14
2023-03-06T03:31:00.998Z,994.14
2023-03-06T03:31:32.996Z,994.14
2023-03-06T03:32:05.741Z,994.14
2023-03-06T03:32:34.570Z,994.31
2023-03-06T03:32:52.981Z,994.31
2023-03-06T03:33:25.013Z,994.31
2023-03-06T03:33:42.199Z,994.04
2023-03-06T03:34:13.664Z,994.04
2023-03-06T03:34:34.490Z,994.31
2023-03-06T03:35:01.278Z,994.31
2023-03-06T03:35:32.926Z,994.31
2023-03-06T03:36:04.977Z,994.04
2023-03-06T03:36:34.431Z,994.14
2023-03-06T03:36:52.926Z,994.14
2023-03-06T03:37:25.764Z,994.14
2023-03-06T03:37:42.330Z,994.21
2023-03-06T03:38:12.990Z,994.21
2023-03-06T03:38:34.457Z,994.04
2023-03-06T03:39:00.949Z,994.04
2023-03-06T03:39:33.681Z,994.04
2023-03-06T03:40:05.086Z,994.04
2023-03-06T03:40:35.226Z,994.21
2023-03-06T03:40:53.478Z,994.21
2023-03-06T03:41:24.985Z,994.21
2023-03-06T03:41:42.848Z,993.84
2023-03-06T03:42:12.925Z,993.84
2023-03-06T03:42:34.441Z,994.04
2023-03-06T03:43:00.983Z,994.04
2023-03-06T03:43:32.955Z,994.04
2023-03-06T03:44:05.828Z,994.04
2023-03-06T03:44:34.453Z,993.94
2023-03-06T03:44:52.937Z,993.94
2023-03-06T03:45:25.141Z,993.94
2023-03-06T03:45:42.191Z,994.14
2023-03-06T03:46:13.727Z,994.14
2023-03-06T03:46:34.482Z,994.04
2023-03-06T03:47:00.992Z,994.04
2023-03-06T03:47:32.946Z,994.04
2023-03-06T03:48:04.942Z,993.94
2023-03-06T03:48:34.515Z,994.14
2023-03-06T03:48:53.015Z,994.14
2023-03-06T03:49:25.796Z,994.14
2023-03-06T03:49:42.348Z,994.14
2023-03-06T03:50:13.061Z,994.14
2023-03-06T03:50:34.958Z,994.04
2023-03-06T03:51:00.984Z,994.04
2023-03-06T03:51:33.727Z,994.04
2023-03-06T03:52:04.961Z,994.14
2023-03-06T03:52:35.151Z,993.94
2023-03-06T03:52:52.984Z,993.94
2023-03-06T03:53:24.950Z,993.94
2023-03-06T03:53:42.864Z,993.84
2023-03-06T03:54:12.968Z,993.84
2023-03-06T03:54:34.933Z,994.04
2023-03-06T03:55:01.089Z,994.04
2023-03-06T03:55:32.951Z,994.04
2023-03-06T03:56:05.757Z,993.73
2023-03-06T03:56:34.928Z,994.04
2023-03-06T03:56:52.961Z,994.04
2023-03-06T03:57:24.945Z,994.04
2023-03-06T03:57:42.197Z,994.04
2023-03-06T03:58:13.736Z,994.04
2023-03-06T03:58:34.446Z,994.14
2023-03-06T03:59:00.956Z,994.14
2023-03-06T03:59:33.023Z,994.14
2023-03-06T04:00:05.421Z,993.84
2023-03-06T04:00:34.431Z,993.84
2023-03-06T04:00:53.419Z,993.84
2023-03-06T04:01:25.648Z,993.84
2023-03-06T04:01:57.882Z,993.94
2023-03-06T04:02:29.722Z,993.94
2023-03-06T04:03:00.933Z,993.84
2023-03-06T04:03:33.744Z,993.84
2023-03-06T04:04:04.954Z,993.84
2023-03-06T04:04:35.149Z,993.84
2023-03-06T04:04:52.994Z,993.84
2023-03-06T04:05:25.088Z,993.84
2023-03-06T04:05:42.877Z,993.84
2023-03-06T04:06:12.920Z,993.84
2023-03-06T04:06:34.454Z,993.94
2023-03-06T04:07:01.006Z,993.94
2023-03-06T04:07:33.441Z,993.94
2023-03-06T04:08:05.658Z,993.73
2023-03-06T04:08:34.458Z,993.84
2023-03-06T04:08:52.959Z,993.84
2023-03-06T04:09:24.954Z,993.84
2023-03-06T04:09:42.154Z,993.84
2023-03-06T04:10:13.817Z,993.84
2023-03-06T04:10:34.510Z,993.63
2023-03-06T04:11:00.966Z,993.63
2023-03-06T04:11:33.038Z,993.63
2023-03-06T04:12:04.931Z,993.84
2023-03-06T04:12:35.147Z,993.84
2023-03-06T04:12:52.995Z,993.84
2023-03-06T04:13:25.718Z,993.84
2023-03-06T04:13:57.884Z,993.84
2023-03-06T04:14:35.235Z,993.73
2023-03-06T04:15:01.186Z,993.73
2023-03-06T04:15:33.042Z,993.73
2023-03-06T04:16:04.964Z,993.84
2023-03-06T04:16:34.453Z,993.53
2023-03-06T04:16:53.671Z,993.53
2023-03-06T04:17:24.929Z,993.53
2023-03-06T04:17:42.160Z,993.63
2023-03-06T04:18:13.068Z,993.63
2023-03-06T04:18:34.422Z,993.73
2023-03-06T04:19:00.978Z,993.73
2023-03-06T04:19:33.049Z,993.73
2023-03-06T04:20:05.909Z,993.53
2023-03-06T04:20:34.847Z,993.63
2023-03-06T04:20:53.120Z,993.63
2023-03-06T04:21:24.946Z,993.63
2023-03-06T04:21:42.235Z,993.84
2023-03-06T04:22:13.782Z,993.84
2023-03-06T04:22:34.924Z,993.63
2023-03-06T04:23:01.023Z,993.63
2023-03-06T04:23:33.070Z,993.63
2023-03-06T04:24:05.005Z,993.43
2023-03-06T04:24:34.427Z,993.43
2023-03-06T04:24:52.941Z,993.43
2023-03-06T04:25:25.915Z,993.43
2023-03-06T04:25:42.346Z,993.53
2023-03-06T04:26:13.000Z,993.53
2023-03-06T04:26:34.463Z,993.73
2023-03-06T04:27:00.978Z,993.73
2023-03-06T04:27:33.659Z,993.73
2023-03-06T04:28:04.946Z,993.73
2023-03-06T04:28:35.149Z,993.43
2023-03-06T04:28:52.997Z,993.43
2023-03-06T04:29:24.991Z,993.43
2023-03-06T04:29:42.915Z,993.43
2023-03-06T04:30:13.158Z,993.43
2023-03-06T04:30:34.448Z,993.53
2023-03-06T04:31:01.029Z,993.53
2023-03-06T04:31:33.060Z,993.53
2023-03-06T04:32:05.676Z,993.43
2023-03-06T04:32:34.462Z,993.43
2023-03-06T04:32:52.977Z,993.43
2023-03-06T04:33:25.056Z,993.43
2023-03-06T04:33:42.239Z,993.33
2023-03-06T04:34:13.798Z,993.33
2023-03-06T04:34:34.416Z,993.53
2023-03-06T04:35:01.146Z,993.53
2023-03-06T04:35:32.942Z,993.53
2023-03-06T04:36:04.973Z,993.53
2023-03-06T04:36:34.476Z,993.63
2023-03-06T04:36:52.980Z,993.63
2023-03-06T04:37:25.826Z,993.63
2023-03-06T04:37:42.324Z,993.63
2023-03-06T04:38:12.945Z,993.63
2023-03-06T04:38:34.510Z,993.23
2023-03-06T04:39:01.057Z,993.23
2023-03-06T04:39:33.776Z,993.23
2023-03-06T04:40:05.127Z,993.53
2023-03-06T04:40:35.323Z,993.43
2023-03-06T04:40:53.395Z,993.43
2023-03-06T04:41:24.956Z,993.43
2023-03-06T04:41:42.916Z,993.33
2023-03-06T04:42:12.990Z,993.33
2023-03-06T04:42:34.449Z,993.33
2023-03-06T04:43:00.972Z,993.33
2023-03-06T04:43:33.012Z,993.33
2023-03-06T04:44:05.762Z,993.43
2023-03-06T04:44:35.066Z,993.63
2023-03-06T04:44:52.993Z,993.63
2023-03-06T04:45:25.239Z,993.63
2023-03-06T04:45:42.294Z,993.53
2023-03-06T04:46:13.788Z,993.53
2023-03-06T04:46:34.484Z,993.33
2023-03-06T04:47:01.036Z,993.33
2023-03-06T04:47:33.530Z,993.33
2023-03-06T04:48:04.969Z,993.53
2023-03-06T04:48:34.432Z,993.43
2023-03-06T04:48:52.932Z,993.43
2023-03-06T04:49:26.068Z,993.43
2023-03-06T04:49:57.567Z,993.33
2023-03-06T04:50:30.000Z,993.33
2023-03-06T04:51:01.047Z,993.53
2023-03-06T04:51:33.786Z,993.53
2023-03-06T04:52:04.977Z,993.33
2023-03-06T04:52:36.271Z,993.43
2023-03-06T04:53:08.567Z,993.43
2023-03-06T04:53:24.969Z,993.43
2023-03-06T04:53:43.182Z,993.53
2023-03-06T04:54:29.009Z,993.53
2023-03-06T04:55:01.113Z,993.43
2023-03-06T04:55:33.020Z,993.43
2023-03-06T04:56:05.034Z,993.33
2023-03-06T04:56:35.170Z,993.33
2023-03-06T04:56:53.831Z,993.33
2023-03-06T04:57:24.929Z,993.33
2023-03-06T04:57:42.171Z,993.43
2023-03-06T04:58:13.844Z,993.43
2023-03-06T04:58:34.452Z,993.33
2023-03-06T04:59:01.140Z,993.33
2023-03-06T04:59:33.040Z,993.33
2023-03-06T05:00:05.280Z,993.23
2023-03-06T05:00:34.465Z,993.23
2023-03-06T05:00:53.236Z,993.23
2023-03-06T05:01:25.832Z,993.23
2023-03-06T05:01:42.324Z,993.53
2023-03-06T05:02:12.994Z,993.53
2023-03-06T05:02:34.436Z,993.53
2023-03-06T05:03:01.047Z,993.53
2023-03-06T05:03:33.910Z,993.53
2023-03-06T05:04:05.014Z,993.33
2023-03-06T05:04:35.273Z,993.53
2023-03-06T05:05:09.212Z,993.53
2023-03-06T05:05:34.542Z,993.33
2023-03-06T05:05:57.189Z,993.33
2023-03-06T05:06:28.997Z,993.33
2023-03-06T05:07:01.803Z,993.43
2023-03-06T05:07:33.024Z,993.43
2023-03-06T05:08:05.809Z,993.33
2023-03-06T05:08:34.492Z,993.23
2023-03-06T05:08:53.037Z,993.23
2023-03-06T05:09:24.962Z,993.23
2023-03-06T05:09:42.207Z,993.23
2023-03-06T05:10:13.902Z,993.23
2023-03-06T05:10:34.427Z,993.43
2023-03-06T05:11:01.008Z,993.43
2023-03-06T05:11:33.017Z,993.43
2023-03-06T05:12:05.013Z,993.33
2023-03-06T05:12:34.453Z,993.43
2023-03-06T05:12:53.005Z,993.43
2023-03-06T05:13:25.704Z,993.43
2023-03-06T05:13:57.893Z,993.43
2023-03-06T05:14:29.814Z,993.43
2023-03-06T05:15:01.166Z,993.23
2023-03-06T05:15:33.781Z,993.23
2023-03-06T05:16:05.051Z,993.43
2023-03-06T05:16:35.380Z,993.33
2023-03-06T05:16:53.159Z,993.33
2023-03-06T05:17:25.033Z,993.33
2023-03-06T05:17:42.915Z,993.33
2023-03-06T05:18:12.995Z,993.33
2023-03-06T05:18:34.429Z,993.53
2023-03-06T05:19:01.047Z,993.53
2023-03-06T05:19:33.056Z,993.53
2023-03-06T05:20:05.941Z,993.43
2023-03-06T05:20:34.429Z,993.43
2023-03-06T05:20:53.129Z,993.43
2023-03-06T05:21:25.090Z,993.43
2023-03-06T05:21:42.292Z,993.33
2023-03-06T05:22:13.704Z,993.33
2023-03-06T05:22:34.434Z,993.33
2023-03-06T05:23:00.998Z,993.33
2023-03-06T05:23:33.436Z,993.33
2023-03-06T05:24:05.051Z,993.43
2023-03-06T05:24:35.255Z,993.33
2023-03-06T05:24:53.090Z,993.33
2023-03-06T05:25:25.147Z,993.33
2023-03-06T05:25:42.913Z,993.33
2023-03-06T05:26:12.989Z,993.33
2023-03-06T05:26:34.435Z,993.23
2023-03-06T05:27:01.006Z,993.23
2023-03-06T05:27:33.000Z,993.23
2023-03-06T05:28:05.760Z,993.63
2023-03-06T05:28:34.454Z,993.43
2023-03-06T05:28:53.016Z,993.43
2023-03-06T05:29:24.954Z,993.43
2023-03-06T05:29:42.314Z,993.43
2023-03-06T05:30:14.016Z,993.43
2023-03-06T05:30:34.444Z,993.43
2023-03-06T05:31:03.265Z,993.43
2023-03-06T05:31:33.077Z,993.43
2023-03-06T05:32:05.160Z,993.43
2023-03-06T05:32:35.707Z,993.33
2023-03-06T05:32:53.205Z,993.33
2023-03-06T05:33:25.785Z,993.33
2023-03-06T05:33:42.269Z,993.43
2023-03-06T05:34:12.974Z,993.43
2023-03-06T05:34:34.436Z,993.43
2023-03-06T05:35:01.174Z,993.43
2023-03-06T05:35:33.876Z,993.43
2023-03-06T05:36:05.000Z,993.53
2023-03-06T05:36:35.159Z,993.53
2023-03-06T05:36:53.024Z,993.53
2023-03-06T05:37:24.986Z,993.53
2023-03-06T05:37:43.211Z,993.53
2023-03-06T05:38:13.006Z,993.53